sensor_id;sensor_type;location;lat;lon;timestamp;temperature;humidity
17364;DHT22;8799;43.594;13.526;2023-03-01T00:01:12;17.40;99.90
17364;DHT22;8799;43.594;13.526;2023-03-01T00:03:40;17.40;99.90
17364;DHT22;8799;43.594;13.526;2023-03-01T00:06:09;17.40;99.90
17364;DHT22;8799;43.594;13.526;2023-03-01T00:08:37;17.40;99.90
17364;DHT22;8799;43.594;13.526;2023-03-01T00:11:08;17.40;99.90
17364;DHT22;8799;43.594;13.526;2023-03-01T00:13:44;17.40;99.90
17364;DHT22;8799;43.594;13.526;2023-03-01T00:16:14;17.40;99.90
17364;DHT22;8799;43.594;13.526;2023-03-01T00:18:42;17.40;99.90
17364;DHT22;8799;43.594;13.526;2023-03-01T00:21:10;17.40;99.90
17364;DHT22;8799;43.594;13.526;2023-03-01T00:23:38;17.40;99.90
17364;DHT22;8799;43.594;13.526;2023-03-01T00:26:09;17.40;99.90
17364;DHT22;8799;43.594;13.526;2023-03-01T00:28:37;17.40;99.90
17364;DHT22;8799;43.594;13.526;2023-03-01T00:31:06;17.40;99.90
17364;DHT22;8799;43.594;13.526;2023-03-01T00:33:34;17.40;99.90
17364;DHT22;8799;43.594;13.526;2023-03-01T00:36:03;17.40;99.90
17364;DHT22;8799;43.594;13.526;2023-03-01T00:38:34;17.40;99.90
17364;DHT22;8799;43.594;13.526;2023-03-01T00:41:08;17.40;99.90
17364;DHT22;8799;43.594;13.526;2023-03-01T00:43:37;17.40;99.90
17364;DHT22;8799;43.594;13.526;2023-03-01T00:46:06;17.40;99.90
17364;DHT22;8799;43.594;13.526;2023-03-01T00:48:35;17.40;99.90
17364;DHT22;8799;43.594;13.526;2023-03-01T00:51:07;17.30;99.90
17364;DHT22;8799;43.594;13.526;2023-03-01T00:53:35;17.30;99.90
17364;DHT22;8799;43.594;13.526;2023-03-01T00:56:05;17.30;99.90
17364;DHT22;8799;43.594;13.526;2023-03-01T00:58:56;17.30;99.90
17364;DHT22;8799;43.594;13.526;2023-03-01T01:01:26;17.30;99.90
17364;DHT22;8799;43.594;13.526;2023-03-01T01:03:58;17.30;99.90
17364;DHT22;8799;43.594;13.526;2023-03-01T01:06:28;17.30;99.90
17364;DHT22;8799;43.594;13.526;2023-03-01T01:08:57;17.30;99.90
17364;DHT22;8799;43.594;13.526;2023-03-01T01:11:26;17.30;99.90
17364;DHT22;8799;43.594;13.526;2023-03-01T01:13:56;17.30;99.90
17364;DHT22;8799;43.594;13.526;2023-03-01T01:16:26;17.30;99.90
17364;DHT22;8799;43.594;13.526;2023-03-01T01:18:55;17.30;99.90
17364;DHT22;8799;43.594;13.526;2023-03-01T01:21:24;17.30;99.90
17364;DHT22;8799;43.594;13.526;2023-03-01T01:23:52;17.30;99.90
17364;DHT22;8799;43.594;13.526;2023-03-01T01:26:22;17.30;99.90
17364;DHT22;8799;43.594;13.526;2023-03-01T01:28:50;17.30;99.90
17364;DHT22;8799;43.594;13.526;2023-03-01T01:31:20;17.30;99.90
17364;DHT22;8799;43.594;13.526;2023-03-01T01:33:49;17.30;99.90
17364;DHT22;8799;43.594;13.526;2023-03-01T01:36:17;17.30;99.90
17364;DHT22;8799;43.594;13.526;2023-03-01T01:38:46;17.30;99.90
17364;DHT22;8799;43.594;13.526;2023-03-01T01:41:15;17.30;99.90
17364;DHT22;8799;43.594;13.526;2023-03-01T01:43:44;17.30;99.90
17364;DHT22;8799;43.594;13.526;2023-03-01T01:46:21;17.20;99.90
17364;DHT22;8799;43.594;13.526;2023-03-01T01:48:55;17.20;99.90
17364;DHT22;8799;43.594;13.526;2023-03-01T01:51:28;17.20;99.90
17364;DHT22;8799;43.594;13.526;2023-03-01T01:54:08;17.20;99.90
17364;DHT22;8799;43.594;13.526;2023-03-01T01:56:37;17.20;99.90
17364;DHT22;8799;43.594;13.526;2023-03-01T01:59:08;17.20;99.90
17364;DHT22;8799;43.594;13.526;2023-03-01T02:01:38;17.20;99.90
17364;DHT22;8799;43.594;13.526;2023-03-01T02:04:06;17.20;99.90
17364;DHT22;8799;43.594;13.526;2023-03-01T02:06:37;17.20;99.90
17364;DHT22;8799;43.594;13.526;2023-03-01T02:09:10;17.20;99.90
17364;DHT22;8799;43.594;13.526;2023-03-01T02:11:39;17.20;99.90
17364;DHT22;8799;43.594;13.526;2023-03-01T02:14:07;17.20;99.90
17364;DHT22;8799;43.594;13.526;2023-03-01T02:16:35;17.20;99.90
17364;DHT22;8799;43.594;13.526;2023-03-01T02:19:05;17.20;99.90
17364;DHT22;8799;43.594;13.526;2023-03-01T02:21:40;17.20;99.90
17364;DHT22;8799;43.594;13.526;2023-03-01T02:24:16;17.10;99.90
17364;DHT22;8799;43.594;13.526;2023-03-01T02:26:49;17.10;99.90
17364;DHT22;8799;43.594;13.526;2023-03-01T02:29:21;17.10;99.90
17364;DHT22;8799;43.594;13.526;2023-03-01T02:31:49;17.10;99.90
17364;DHT22;8799;43.594;13.526;2023-03-01T02:34:19;17.10;99.90
17364;DHT22;8799;43.594;13.526;2023-03-01T02:36:49;17.00;99.90
17364;DHT22;8799;43.594;13.526;2023-03-01T02:39:22;17.00;99.90
17364;DHT22;8799;43.594;13.526;2023-03-01T02:41:53;17.00;99.90
17364;DHT22;8799;43.594;13.526;2023-03-01T02:44:22;17.00;99.90
17364;DHT22;8799;43.594;13.526;2023-03-01T02:46:53;17.00;99.90
17364;DHT22;8799;43.594;13.526;2023-03-01T02:49:24;17.00;99.90
17364;DHT22;8799;43.594;13.526;2023-03-01T02:52:13;17.00;99.90
17364;DHT22;8799;43.594;13.526;2023-03-01T02:54:48;17.00;99.90
17364;DHT22;8799;43.594;13.526;2023-03-01T02:57:18;17.00;99.90
17364;DHT22;8799;43.594;13.526;2023-03-01T02:59:48;17.00;99.90
17364;DHT22;8799;43.594;13.526;2023-03-01T03:02:19;17.00;99.90
17364;DHT22;8799;43.594;13.526;2023-03-01T03:05:02;17.00;99.90
17364;DHT22;8799;43.594;13.526;2023-03-01T03:07:32;17.00;99.90
17364;DHT22;8799;43.594;13.526;2023-03-01T03:10:02;17.00;99.90
17364;DHT22;8799;43.594;13.526;2023-03-01T03:12:30;16.90;99.90
17364;DHT22;8799;43.594;13.526;2023-03-01T03:14:59;17.00;99.90
17364;DHT22;8799;43.594;13.526;2023-03-01T03:17:27;16.90;99.90
17364;DHT22;8799;43.594;13.526;2023-03-01T03:19:56;16.90;99.90
17364;DHT22;8799;43.594;13.526;2023-03-01T03:22:24;16.90;99.90
17364;DHT22;8799;43.594;13.526;2023-03-01T03:24:54;16.90;99.90
17364;DHT22;8799;43.594;13.526;2023-03-01T03:27:23;16.90;99.90
17364;DHT22;8799;43.594;13.526;2023-03-01T03:29:50;16.90;99.90
17364;DHT22;8799;43.594;13.526;2023-03-01T03:32:24;16.90;99.90
17364;DHT22;8799;43.594;13.526;2023-03-01T03:34:53;16.90;99.90
17364;DHT22;8799;43.594;13.526;2023-03-01T03:37:21;16.90;99.90
17364;DHT22;8799;43.594;13.526;2023-03-01T03:40:07;16.90;99.90
17364;DHT22;8799;43.594;13.526;2023-03-01T03:42:40;16.90;99.90
17364;DHT22;8799;43.594;13.526;2023-03-01T03:45:09;16.90;99.90
17364;DHT22;8799;43.594;13.526;2023-03-01T03:47:38;16.90;99.90
17364;DHT22;8799;43.594;13.526;2023-03-01T03:50:06;16.90;99.90
17364;DHT22;8799;43.594;13.526;2023-03-01T03:52:34;16.80;99.90
17364;DHT22;8799;43.594;13.526;2023-03-01T03:55:02;16.80;99.90
17364;DHT22;8799;43.594;13.526;2023-03-01T03:57:30;16.80;99.90
17364;DHT22;8799;43.594;13.526;2023-03-01T03:59:58;16.80;99.90
17364;DHT22;8799;43.594;13.526;2023-03-01T04:02:26;16.80;99.90
17364;DHT22;8799;43.594;13.526;2023-03-01T04:04:55;16.80;99.90
17364;DHT22;8799;43.594;13.526;2023-03-01T04:07:23;16.80;99.90
17364;DHT22;8799;43.594;13.526;2023-03-01T04:09:51;16.80;99.90
17364;DHT22;8799;43.594;13.526;2023-03-01T04:12:19;16.80;99.90
17364;DHT22;8799;43.594;13.526;2023-03-01T04:14:48;16.80;99.90
17364;DHT22;8799;43.594;13.526;2023-03-01T04:17:16;16.80;99.90
17364;DHT22;8799;43.594;13.526;2023-03-01T04:19:45;16.80;99.90
17364;DHT22;8799;43.594;13.526;2023-03-01T04:22:15;16.80;99.90
17364;DHT22;8799;43.594;13.526;2023-03-01T04:24:44;16.80;99.90
17364;DHT22;8799;43.594;13.526;2023-03-01T04:29:47;16.70;99.90
17364;DHT22;8799;43.594;13.526;2023-03-01T04:32:14;16.70;99.90
17364;DHT22;8799;43.594;13.526;2023-03-01T04:34:43;16.70;99.90
17364;DHT22;8799;43.594;13.526;2023-03-01T04:37:11;16.70;99.90
17364;DHT22;8799;43.594;13.526;2023-03-01T04:39:40;16.70;99.90
17364;DHT22;8799;43.594;13.526;2023-03-01T04:42:13;16.70;99.90
17364;DHT22;8799;43.594;13.526;2023-03-01T04:44:41;16.70;99.90
17364;DHT22;8799;43.594;13.526;2023-03-01T04:47:09;16.70;99.90
17364;DHT22;8799;43.594;13.526;2023-03-01T04:49:38;16.70;99.90
17364;DHT22;8799;43.594;13.526;2023-03-01T04:52:05;16.70;99.90
17364;DHT22;8799;43.594;13.526;2023-03-01T04:54:34;16.70;99.90
17364;DHT22;8799;43.594;13.526;2023-03-01T04:57:05;16.70;99.90
17364;DHT22;8799;43.594;13.526;2023-03-01T04:59:32;16.70;99.90
17364;DHT22;8799;43.594;13.526;2023-03-01T05:02:01;16.70;99.90
17364;DHT22;8799;43.594;13.526;2023-03-01T05:04:30;16.70;99.90
17364;DHT22;8799;43.594;13.526;2023-03-01T05:06:58;16.70;99.90
17364;DHT22;8799;43.594;13.526;2023-03-01T05:09:26;16.70;99.90
17364;DHT22;8799;43.594;13.526;2023-03-01T05:11:58;16.70;99.90
17364;DHT22;8799;43.594;13.526;2023-03-01T05:14:28;16.70;99.90
17364;DHT22;8799;43.594;13.526;2023-03-01T05:16:56;16.70;99.90
17364;DHT22;8799;43.594;13.526;2023-03-01T05:19:29;16.70;99.90
17364;DHT22;8799;43.594;13.526;2023-03-01T05:21:57;16.70;99.90
17364;DHT22;8799;43.594;13.526;2023-03-01T05:24:32;16.70;99.90
17364;DHT22;8799;43.594;13.526;2023-03-01T05:27:01;16.70;99.90
17364;DHT22;8799;43.594;13.526;2023-03-01T05:29:31;16.60;99.90
17364;DHT22;8799;43.594;13.526;2023-03-01T05:32:01;16.70;99.90
17364;DHT22;8799;43.594;13.526;2023-03-01T05:34:32;16.70;99.90
17364;DHT22;8799;43.594;13.526;2023-03-01T05:37:02;16.70;99.90
17364;DHT22;8799;43.594;13.526;2023-03-01T05:39:30;16.70;99.90
17364;DHT22;8799;43.594;13.526;2023-03-01T05:42:00;16.70;99.90
17364;DHT22;8799;43.594;13.526;2023-03-01T05:44:29;16.70;99.90
17364;DHT22;8799;43.594;13.526;2023-03-01T05:46:58;16.70;99.90
17364;DHT22;8799;43.594;13.526;2023-03-01T05:49:26;16.70;99.90
17364;DHT22;8799;43.594;13.526;2023-03-01T05:51:54;16.80;99.90
17364;DHT22;8799;43.594;13.526;2023-03-01T05:54:22;16.80;99.90
17364;DHT22;8799;43.594;13.526;2023-03-01T05:56:50;16.80;99.90
17364;DHT22;8799;43.594;13.526;2023-03-01T05:59:18;16.80;99.90
17364;DHT22;8799;43.594;13.526;2023-03-01T06:01:46;16.80;99.90
17364;DHT22;8799;43.594;13.526;2023-03-01T06:04:16;16.80;99.90
17364;DHT22;8799;43.594;13.526;2023-03-01T06:06:44;16.80;99.90
17364;DHT22;8799;43.594;13.526;2023-03-01T06:09:13;16.80;99.90
17364;DHT22;8799;43.594;13.526;2023-03-01T06:11:41;16.80;99.90
17364;DHT22;8799;43.594;13.526;2023-03-01T06:14:09;16.80;99.90
17364;DHT22;8799;43.594;13.526;2023-03-01T06:16:39;16.90;99.90
17364;DHT22;8799;43.594;13.526;2023-03-01T06:19:07;16.90;99.90
17364;DHT22;8799;43.594;13.526;2023-03-01T06:21:36;16.90;99.90
17364;DHT22;8799;43.594;13.526;2023-03-01T06:24:04;16.90;99.90
17364;DHT22;8799;43.594;13.526;2023-03-01T06:26:33;16.90;99.90
17364;DHT22;8799;43.594;13.526;2023-03-01T06:29:02;16.90;99.90
17364;DHT22;8799;43.594;13.526;2023-03-01T06:31:29;16.90;99.90
17364;DHT22;8799;43.594;13.526;2023-03-01T06:33:57;16.90;99.90
17364;DHT22;8799;43.594;13.526;2023-03-01T06:36:25;16.90;99.90
17364;DHT22;8799;43.594;13.526;2023-03-01T06:38:56;16.90;99.90
17364;DHT22;8799;43.594;13.526;2023-03-01T06:41:24;17.00;99.90
17364;DHT22;8799;43.594;13.526;2023-03-01T06:43:53;17.00;99.90
17364;DHT22;8799;43.594;13.526;2023-03-01T06:46:21;17.00;99.90
17364;DHT22;8799;43.594;13.526;2023-03-01T06:48:49;17.00;99.90
17364;DHT22;8799;43.594;13.526;2023-03-01T06:51:17;17.00;99.90
17364;DHT22;8799;43.594;13.526;2023-03-01T06:53:46;17.00;99.90
17364;DHT22;8799;43.594;13.526;2023-03-01T06:56:15;17.00;99.90
17364;DHT22;8799;43.594;13.526;2023-03-01T06:58:43;17.00;99.90
17364;DHT22;8799;43.594;13.526;2023-03-01T07:01:14;17.00;99.90
17364;DHT22;8799;43.594;13.526;2023-03-01T07:03:42;16.80;99.90
17364;DHT22;8799;43.594;13.526;2023-03-01T07:08:49;17.00;99.90
17364;DHT22;8799;43.594;13.526;2023-03-01T07:11:19;17.00;99.90
17364;DHT22;8799;43.594;13.526;2023-03-01T07:13:46;17.00;99.90
17364;DHT22;8799;43.594;13.526;2023-03-01T07:16:14;17.00;99.90
17364;DHT22;8799;43.594;13.526;2023-03-01T07:18:42;17.00;99.90
17364;DHT22;8799;43.594;13.526;2023-03-01T07:21:13;17.00;99.90
17364;DHT22;8799;43.594;13.526;2023-03-01T07:23:42;17.00;99.90
17364;DHT22;8799;43.594;13.526;2023-03-01T07:26:09;17.00;99.90
17364;DHT22;8799;43.594;13.526;2023-03-01T07:28:40;16.90;99.90
17364;DHT22;8799;43.594;13.526;2023-03-01T07:31:09;16.90;99.90
17364;DHT22;8799;43.594;13.526;2023-03-01T07:33:36;17.00;99.90
17364;DHT22;8799;43.594;13.526;2023-03-01T07:36:06;17.00;99.90
17364;DHT22;8799;43.594;13.526;2023-03-01T07:38:33;17.00;99.90
17364;DHT22;8799;43.594;13.526;2023-03-01T07:41:03;16.90;99.90
17364;DHT22;8799;43.594;13.526;2023-03-01T07:43:31;16.90;99.90
17364;DHT22;8799;43.594;13.526;2023-03-01T07:46:05;16.90;99.90
17364;DHT22;8799;43.594;13.526;2023-03-01T07:48:33;16.90;99.90
17364;DHT22;8799;43.594;13.526;2023-03-01T07:51:03;16.90;99.90
17364;DHT22;8799;43.594;13.526;2023-03-01T07:53:31;16.90;99.90
17364;DHT22;8799;43.594;13.526;2023-03-01T07:56:03;16.90;99.90
17364;DHT22;8799;43.594;13.526;2023-03-01T07:58:34;16.90;99.90
17364;DHT22;8799;43.594;13.526;2023-03-01T08:01:04;16.90;99.90
17364;DHT22;8799;43.594;13.526;2023-03-01T08:03:33;16.90;99.90
17364;DHT22;8799;43.594;13.526;2023-03-01T08:06:02;16.90;99.90
17364;DHT22;8799;43.594;13.526;2023-03-01T08:08:30;16.90;99.90
17364;DHT22;8799;43.594;13.526;2023-03-01T08:10:59;16.90;99.90
17364;DHT22;8799;43.594;13.526;2023-03-01T08:13:28;16.90;99.90
17364;DHT22;8799;43.594;13.526;2023-03-01T08:16:01;16.80;99.90
17364;DHT22;8799;43.594;13.526;2023-03-01T08:18:31;16.80;99.90
17364;DHT22;8799;43.594;13.526;2023-03-01T08:21:02;16.80;99.90
17364;DHT22;8799;43.594;13.526;2023-03-01T08:23:30;16.80;99.90
17364;DHT22;8799;43.594;13.526;2023-03-01T08:26:07;16.80;99.90
17364;DHT22;8799;43.594;13.526;2023-03-01T08:28:35;16.80;99.90
17364;DHT22;8799;43.594;13.526;2023-03-01T08:31:04;16.80;99.90
17364;DHT22;8799;43.594;13.526;2023-03-01T08:33:41;16.80;99.90
17364;DHT22;8799;43.594;13.526;2023-03-01T08:36:09;16.80;99.90
17364;DHT22;8799;43.594;13.526;2023-03-01T08:38:37;16.80;99.90
17364;DHT22;8799;43.594;13.526;2023-03-01T08:41:05;16.80;99.90
17364;DHT22;8799;43.594;13.526;2023-03-01T08:43:34;16.80;99.90
17364;DHT22;8799;43.594;13.526;2023-03-01T08:46:02;16.80;99.90
17364;DHT22;8799;43.594;13.526;2023-03-01T08:48:30;16.70;99.90
17364;DHT22;8799;43.594;13.526;2023-03-01T08:51:08;16.70;99.90
17364;DHT22;8799;43.594;13.526;2023-03-01T08:53:37;16.70;99.90
17364;DHT22;8799;43.594;13.526;2023-03-01T08:56:06;16.70;99.90
17364;DHT22;8799;43.594;13.526;2023-03-01T08:58:35;16.70;99.90
17364;DHT22;8799;43.594;13.526;2023-03-01T09:01:07;16.70;99.90
17364;DHT22;8799;43.594;13.526;2023-03-01T09:03:34;16.70;99.90
17364;DHT22;8799;43.594;13.526;2023-03-01T09:06:03;16.70;99.90
17364;DHT22;8799;43.594;13.526;2023-03-01T09:08:34;16.70;99.90
17364;DHT22;8799;43.594;13.526;2023-03-01T09:11:03;16.70;99.90
17364;DHT22;8799;43.594;13.526;2023-03-01T09:13:31;16.70;99.90
17364;DHT22;8799;43.594;13.526;2023-03-01T09:16:00;16.70;99.90
17364;DHT22;8799;43.594;13.526;2023-03-01T09:18:28;16.70;99.90
17364;DHT22;8799;43.594;13.526;2023-03-01T09:21:01;16.70;99.90
17364;DHT22;8799;43.594;13.526;2023-03-01T09:23:35;16.70;99.90
17364;DHT22;8799;43.594;13.526;2023-03-01T09:26:04;16.70;99.90
17364;DHT22;8799;43.594;13.526;2023-03-01T09:28:32;16.70;99.90
17364;DHT22;8799;43.594;13.526;2023-03-01T09:31:00;16.70;99.90
17364;DHT22;8799;43.594;13.526;2023-03-01T09:33:29;16.70;99.90
17364;DHT22;8799;43.594;13.526;2023-03-01T09:35:58;16.70;99.90
17364;DHT22;8799;43.594;13.526;2023-03-01T09:38:26;16.60;99.90
17364;DHT22;8799;43.594;13.526;2023-03-01T09:40:55;16.60;99.90
17364;DHT22;8799;43.594;13.526;2023-03-01T09:43:30;16.60;99.90
17364;DHT22;8799;43.594;13.526;2023-03-01T09:46:05;16.60;99.90
17364;DHT22;8799;43.594;13.526;2023-03-01T09:48:42;16.60;99.90
17364;DHT22;8799;43.594;13.526;2023-03-01T09:51:16;16.60;99.90
17364;DHT22;8799;43.594;13.526;2023-03-01T09:53:45;16.60;99.90
17364;DHT22;8799;43.594;13.526;2023-03-01T09:56:19;16.60;99.90
17364;DHT22;8799;43.594;13.526;2023-03-01T09:58:53;16.60;99.90
17364;DHT22;8799;43.594;13.526;2023-03-01T10:01:31;16.60;99.90
17364;DHT22;8799;43.594;13.526;2023-03-01T10:04:10;16.60;99.90
17364;DHT22;8799;43.594;13.526;2023-03-01T10:06:44;16.60;99.90
17364;DHT22;8799;43.594;13.526;2023-03-01T10:09:14;16.60;99.90
17364;DHT22;8799;43.594;13.526;2023-03-01T10:11:49;16.60;99.90
17364;DHT22;8799;43.594;13.526;2023-03-01T10:14:27;16.60;99.90
17364;DHT22;8799;43.594;13.526;2023-03-01T10:17:01;16.60;99.90
17364;DHT22;8799;43.594;13.526;2023-03-01T10:19:33;16.50;99.90
17364;DHT22;8799;43.594;13.526;2023-03-01T10:22:10;16.50;99.90
17364;DHT22;8799;43.594;13.526;2023-03-01T10:24:39;16.50;99.90
17364;DHT22;8799;43.594;13.526;2023-03-01T10:27:13;16.50;99.90
17364;DHT22;8799;43.594;13.526;2023-03-01T10:29:50;16.50;99.90
17364;DHT22;8799;43.594;13.526;2023-03-01T10:32:22;16.50;99.90
17364;DHT22;8799;43.594;13.526;2023-03-01T10:34:50;16.50;99.90
17364;DHT22;8799;43.594;13.526;2023-03-01T10:37:20;16.50;99.90
17364;DHT22;8799;43.594;13.526;2023-03-01T10:40:02;16.50;99.90
17364;DHT22;8799;43.594;13.526;2023-03-01T10:42:37;16.50;99.90
17364;DHT22;8799;43.594;13.526;2023-03-01T10:45:17;16.50;99.90
17364;DHT22;8799;43.594;13.526;2023-03-01T10:48:10;16.50;99.90
17364;DHT22;8799;43.594;13.526;2023-03-01T10:50:41;16.40;99.90
17364;DHT22;8799;43.594;13.526;2023-03-01T10:53:32;16.50;99.90
17364;DHT22;8799;43.594;13.526;2023-03-01T10:56:03;16.50;99.90
17364;DHT22;8799;43.594;13.526;2023-03-01T10:58:33;16.50;99.90
17364;DHT22;8799;43.594;13.526;2023-03-01T11:01:03;16.40;99.90
17364;DHT22;8799;43.594;13.526;2023-03-01T11:03:33;16.40;99.90
17364;DHT22;8799;43.594;13.526;2023-03-01T11:06:05;16.40;99.90
17364;DHT22;8799;43.594;13.526;2023-03-01T11:08:38;16.40;99.90
17364;DHT22;8799;43.594;13.526;2023-03-01T11:14:00;16.40;99.90
17364;DHT22;8799;43.594;13.526;2023-03-01T11:16:34;16.40;99.90
17364;DHT22;8799;43.594;13.526;2023-03-01T11:19:20;16.40;99.90
17364;DHT22;8799;43.594;13.526;2023-03-01T11:21:59;16.40;99.90
17364;DHT22;8799;43.594;13.526;2023-03-01T11:24:39;16.40;99.90
17364;DHT22;8799;43.594;13.526;2023-03-01T11:27:16;16.40;99.90
17364;DHT22;8799;43.594;13.526;2023-03-01T11:29:50;16.40;99.90
17364;DHT22;8799;43.594;13.526;2023-03-01T11:32:22;16.40;99.90
17364;DHT22;8799;43.594;13.526;2023-03-01T11:34:54;16.40;99.90
17364;DHT22;8799;43.594;13.526;2023-03-01T11:37:32;16.40;99.90
17364;DHT22;8799;43.594;13.526;2023-03-01T11:40:10;16.30;99.90
17364;DHT22;8799;43.594;13.526;2023-03-01T11:42:47;16.30;99.90
17364;DHT22;8799;43.594;13.526;2023-03-01T11:45:18;16.40;99.90
17364;DHT22;8799;43.594;13.526;2023-03-01T11:48:12;16.30;99.90
17364;DHT22;8799;43.594;13.526;2023-03-01T11:50:51;16.30;99.90
17364;DHT22;8799;43.594;13.526;2023-03-01T11:53:33;16.30;99.90
17364;DHT22;8799;43.594;13.526;2023-03-01T11:56:16;16.30;99.90
17364;DHT22;8799;43.594;13.526;2023-03-01T11:59:03;16.30;99.90
17364;DHT22;8799;43.594;13.526;2023-03-01T12:01:47;16.30;99.90
17364;DHT22;8799;43.594;13.526;2023-03-01T12:04:47;16.30;99.90
17364;DHT22;8799;43.594;13.526;2023-03-01T12:07:20;16.30;99.90
17364;DHT22;8799;43.594;13.526;2023-03-01T12:10:05;16.20;99.90
17364;DHT22;8799;43.594;13.526;2023-03-01T12:12:53;16.30;99.90
17364;DHT22;8799;43.594;13.526;2023-03-01T12:15:45;16.30;99.90
17364;DHT22;8799;43.594;13.526;2023-03-01T12:21:17;16.20;99.90
17364;DHT22;8799;43.594;13.526;2023-03-01T12:24:02;16.20;99.90
17364;DHT22;8799;43.594;13.526;2023-03-01T12:26:36;16.20;99.90
17364;DHT22;8799;43.594;13.526;2023-03-01T12:29:21;16.20;99.90
17364;DHT22;8799;43.594;13.526;2023-03-01T12:32:10;16.20;99.90
17364;DHT22;8799;43.594;13.526;2023-03-01T12:37:57;16.20;99.90
17364;DHT22;8799;43.594;13.526;2023-03-01T12:43:41;16.20;99.90
17364;DHT22;8799;43.594;13.526;2023-03-01T12:46:23;16.20;99.90
17364;DHT22;8799;43.594;13.526;2023-03-01T12:49:00;16.20;99.90
17364;DHT22;8799;43.594;13.526;2023-03-01T12:51:35;16.10;99.90
17364;DHT22;8799;43.594;13.526;2023-03-01T12:54:11;16.10;99.90
17364;DHT22;8799;43.594;13.526;2023-03-01T12:56:42;16.10;99.90
17364;DHT22;8799;43.594;13.526;2023-03-01T12:59:21;16.10;99.90
17364;DHT22;8799;43.594;13.526;2023-03-01T13:01:56;16.10;99.90
17364;DHT22;8799;43.594;13.526;2023-03-01T13:04:37;16.20;99.90
17364;DHT22;8799;43.594;13.526;2023-03-01T13:07:28;16.10;99.90
17364;DHT22;8799;43.594;13.526;2023-03-01T13:10:06;16.10;99.90
17364;DHT22;8799;43.594;13.526;2023-03-01T13:12:48;16.10;99.90
17364;DHT22;8799;43.594;13.526;2023-03-01T13:15:32;16.10;99.90
17364;DHT22;8799;43.594;13.526;2023-03-01T13:18:02;16.10;99.90
17364;DHT22;8799;43.594;13.526;2023-03-01T13:20:34;16.10;99.90
17364;DHT22;8799;43.594;13.526;2023-03-01T13:23:24;16.10;99.90
17364;DHT22;8799;43.594;13.526;2023-03-01T13:26:08;16.10;99.90
17364;DHT22;8799;43.594;13.526;2023-03-01T13:28:52;16.10;99.90
17364;DHT22;8799;43.594;13.526;2023-03-01T13:31:55;16.10;99.90
17364;DHT22;8799;43.594;13.526;2023-03-01T13:34:46;16.10;99.90
17364;DHT22;8799;43.594;13.526;2023-03-01T13:37:42;16.10;99.90
17364;DHT22;8799;43.594;13.526;2023-03-01T13:43:29;16.10;99.90
17364;DHT22;8799;43.594;13.526;2023-03-01T13:45:57;16.10;99.90
17364;DHT22;8799;43.594;13.526;2023-03-01T13:48:28;16.00;99.90
17364;DHT22;8799;43.594;13.526;2023-03-01T13:51:00;16.00;99.90
17364;DHT22;8799;43.594;13.526;2023-03-01T13:53:33;16.00;99.90
17364;DHT22;8799;43.594;13.526;2023-03-01T13:56:08;16.00;99.90
17364;DHT22;8799;43.594;13.526;2023-03-01T13:58:53;16.00;99.90
17364;DHT22;8799;43.594;13.526;2023-03-01T14:01:27;16.00;99.90
17364;DHT22;8799;43.594;13.526;2023-03-01T14:03:57;16.00;99.90
17364;DHT22;8799;43.594;13.526;2023-03-01T14:06:27;16.10;99.90
17364;DHT22;8799;43.594;13.526;2023-03-01T14:09:03;16.00;99.90
17364;DHT22;8799;43.594;13.526;2023-03-01T14:11:56;16.00;99.90
17364;DHT22;8799;43.594;13.526;2023-03-01T14:14:40;16.00;99.90
17364;DHT22;8799;43.594;13.526;2023-03-01T14:17:29;16.00;99.90
17364;DHT22;8799;43.594;13.526;2023-03-01T14:20:07;16.00;99.90
17364;DHT22;8799;43.594;13.526;2023-03-01T14:22:36;16.00;99.90
17364;DHT22;8799;43.594;13.526;2023-03-01T14:25:20;16.00;99.90
17364;DHT22;8799;43.594;13.526;2023-03-01T14:27:55;16.00;99.90
17364;DHT22;8799;43.594;13.526;2023-03-01T14:30:26;16.00;99.90
17364;DHT22;8799;43.594;13.526;2023-03-01T14:32:56;16.00;99.90
17364;DHT22;8799;43.594;13.526;2023-03-01T14:35:26;16.00;99.90
17364;DHT22;8799;43.594;13.526;2023-03-01T14:37:54;16.00;99.90
17364;DHT22;8799;43.594;13.526;2023-03-01T14:40:28;16.00;99.90
17364;DHT22;8799;43.594;13.526;2023-03-01T14:42:58;16.00;99.90
17364;DHT22;8799;43.594;13.526;2023-03-01T14:45:29;16.00;99.90
17364;DHT22;8799;43.594;13.526;2023-03-01T14:48:00;16.00;99.90
17364;DHT22;8799;43.594;13.526;2023-03-01T14:50:30;15.90;99.90
17364;DHT22;8799;43.594;13.526;2023-03-01T14:52:59;16.00;99.90
17364;DHT22;8799;43.594;13.526;2023-03-01T14:55:30;16.00;99.90
17364;DHT22;8799;43.594;13.526;2023-03-01T14:57:59;16.00;99.90
17364;DHT22;8799;43.594;13.526;2023-03-01T15:00:29;16.00;99.90
17364;DHT22;8799;43.594;13.526;2023-03-01T15:03:03;15.90;99.90
17364;DHT22;8799;43.594;13.526;2023-03-01T15:05:35;15.90;99.90
17364;DHT22;8799;43.594;13.526;2023-03-01T15:08:04;15.90;99.90
17364;DHT22;8799;43.594;13.526;2023-03-01T15:10:34;15.90;99.90
17364;DHT22;8799;43.594;13.526;2023-03-01T15:13:13;15.90;99.90
17364;DHT22;8799;43.594;13.526;2023-03-01T15:15:43;15.90;99.90
17364;DHT22;8799;43.594;13.526;2023-03-01T15:18:17;15.90;99.90
17364;DHT22;8799;43.594;13.526;2023-03-01T15:20:46;15.90;99.90
17364;DHT22;8799;43.594;13.526;2023-03-01T15:23:22;15.90;99.90
17364;DHT22;8799;43.594;13.526;2023-03-01T15:26:24;15.90;99.90
17364;DHT22;8799;43.594;13.526;2023-03-01T15:28:53;15.90;99.90
17364;DHT22;8799;43.594;13.526;2023-03-01T15:31:27;15.90;99.90
17364;DHT22;8799;43.594;13.526;2023-03-01T15:34:21;15.90;99.90
17364;DHT22;8799;43.594;13.526;2023-03-01T15:36:50;15.90;99.90
17364;DHT22;8799;43.594;13.526;2023-03-01T15:39:33;15.90;99.90
17364;DHT22;8799;43.594;13.526;2023-03-01T15:42:04;15.90;99.90
17364;DHT22;8799;43.594;13.526;2023-03-01T15:44:34;15.90;99.90
17364;DHT22;8799;43.594;13.526;2023-03-01T15:47:08;15.90;99.90
17364;DHT22;8799;43.594;13.526;2023-03-01T15:49:52;15.90;99.90
17364;DHT22;8799;43.594;13.526;2023-03-01T15:52:24;15.90;99.90
17364;DHT22;8799;43.594;13.526;2023-03-01T15:54:56;15.80;99.90
17364;DHT22;8799;43.594;13.526;2023-03-01T15:57:24;15.80;99.90
17364;DHT22;8799;43.594;13.526;2023-03-01T15:59:52;15.80;99.90
17364;DHT22;8799;43.594;13.526;2023-03-01T16:02:21;15.80;99.90
17364;DHT22;8799;43.594;13.526;2023-03-01T16:04:50;15.80;99.90
17364;DHT22;8799;43.594;13.526;2023-03-01T16:07:17;15.80;99.90
17364;DHT22;8799;43.594;13.526;2023-03-01T16:09:46;15.80;99.90
17364;DHT22;8799;43.594;13.526;2023-03-01T16:12:15;15.80;99.90
17364;DHT22;8799;43.594;13.526;2023-03-01T16:14:43;15.80;99.90
17364;DHT22;8799;43.594;13.526;2023-03-01T16:17:11;15.80;99.90
17364;DHT22;8799;43.594;13.526;2023-03-01T16:19:41;15.80;99.90
17364;DHT22;8799;43.594;13.526;2023-03-01T16:22:09;15.80;99.90